sensor_id;sensor_type;location;lat;lon;timestamp;P1;durP1;ratioP1;P2;durP2;ratioP2
10114;SDS011;5097;43.260;27.812;2023-09-30T00:00:24;5.90;;;4.57;;
10114;SDS011;5097;43.260;27.812;2023-09-30T00:03:08;7.00;;;4.32;;
10114;SDS011;5097;43.260;27.812;2023-09-30T00:05:53;5.05;;;4.30;;
10114;SDS011;5097;43.260;27.812;2023-09-30T00:08:37;7.80;;;4.10;;
10114;SDS011;5097;43.260;27.812;2023-09-30T00:11:24;5.00;;;4.15;;
10114;SDS011;5097;43.260;27.812;2023-09-30T00:14:08;6.00;;;4.53;;
10114;SDS011;5097;43.260;27.812;2023-09-30T00:16:53;5.63;;;4.57;;
10114;SDS011;5097;43.260;27.812;2023-09-30T00:19:37;5.38;;;3.97;;
10114;SDS011;5097;43.260;27.812;2023-09-30T00:22:21;6.88;;;4.57;;
10114;SDS011;5097;43.260;27.812;2023-09-30T00:25:06;6.65;;;4.10;;
10114;SDS011;5097;43.260;27.812;2023-09-30T00:27:50;6.60;;;5.10;;
10114;SDS011;5097;43.260;27.812;2023-09-30T00:30:35;5.63;;;4.97;;
10114;SDS011;5097;43.260;27.812;2023-09-30T00:33:22;5.75;;;4.60;;
10114;SDS011;5097;43.260;27.812;2023-09-30T00:36:08;4.68;;;3.90;;
10114;SDS011;5097;43.260;27.812;2023-09-30T00:38:54;4.97;;;4.47;;
10114;SDS011;5097;43.260;27.812;2023-09-30T00:41:38;6.60;;;4.97;;
10114;SDS011;5097;43.260;27.812;2023-09-30T00:44:22;5.63;;;4.68;;
10114;SDS011;5097;43.260;27.812;2023-09-30T00:47:06;4.88;;;4.38;;
10114;SDS011;5097;43.260;27.812;2023-09-30T00:49:54;5.53;;;4.65;;
10114;SDS011;5097;43.260;27.812;2023-09-30T00:52:38;6.28;;;4.82;;
10114;SDS011;5097;43.260;27.812;2023-09-30T00:55:23;5.90;;;4.20;;
10114;SDS011;5097;43.260;27.812;2023-09-30T00:58:07;5.60;;;4.45;;
10114;SDS011;5097;43.260;27.812;2023-09-30T01:00:51;4.93;;;4.45;;
10114;SDS011;5097;43.260;27.812;2023-09-30T01:03:36;6.65;;;4.70;;
10114;SDS011;5097;43.260;27.812;2023-09-30T01:06:22;6.93;;;5.28;;
10114;SDS011;5097;43.260;27.812;2023-09-30T01:09:06;5.85;;;4.70;;
10114;SDS011;5097;43.260;27.812;2023-09-30T01:11:51;8.18;;;5.40;;
10114;SDS011;5097;43.260;27.812;2023-09-30T01:14:35;6.05;;;4.65;;
10114;SDS011;5097;43.260;27.812;2023-09-30T01:17:20;5.25;;;4.68;;
10114;SDS011;5097;43.260;27.812;2023-09-30T01:20:05;5.45;;;4.93;;
10114;SDS011;5097;43.260;27.812;2023-09-30T01:22:52;7.43;;;4.60;;
10114;SDS011;5097;43.260;27.812;2023-09-30T01:25:37;5.93;;;5.20;;
10114;SDS011;5097;43.260;27.812;2023-09-30T01:28:21;5.93;;;4.43;;
10114;SDS011;5097;43.260;27.812;2023-09-30T01:31:06;6.47;;;4.70;;
10114;SDS011;5097;43.260;27.812;2023-09-30T01:33:50;6.47;;;4.68;;
10114;SDS011;5097;43.260;27.812;2023-09-30T01:36:37;6.22;;;4.78;;
10114;SDS011;5097;43.260;27.812;2023-09-30T01:39:22;5.72;;;5.03;;
10114;SDS011;5097;43.260;27.812;2023-09-30T01:42:07;5.18;;;4.65;;
10114;SDS011;5097;43.260;27.812;2023-09-30T01:44:51;5.40;;;4.68;;
10114;SDS011;5097;43.260;27.812;2023-09-30T01:47:35;6.55;;;4.47;;
10114;SDS011;5097;43.260;27.812;2023-09-30T01:50:19;9.35;;;5.45;;
10114;SDS011;5097;43.260;27.812;2023-09-30T01:53:03;6.03;;;4.32;;
10114;SDS011;5097;43.260;27.812;2023-09-30T01:55:50;4.78;;;4.35;;
10114;SDS011;5097;43.260;27.812;2023-09-30T01:58:34;7.35;;;4.70;;
10114;SDS011;5097;43.260;27.812;2023-09-30T02:01:18;6.03;;;4.88;;
10114;SDS011;5097;43.260;27.812;2023-09-30T02:04:02;6.85;;;5.00;;
10114;SDS011;5097;43.260;27.812;2023-09-30T02:06:48;6.68;;;4.75;;
10114;SDS011;5097;43.260;27.812;2023-09-30T02:09:32;5.85;;;4.35;;
10114;SDS011;5097;43.260;27.812;2023-09-30T02:12:17;6.85;;;4.47;;
10114;SDS011;5097;43.260;27.812;2023-09-30T02:15:02;4.93;;;4.37;;
10114;SDS011;5097;43.260;27.812;2023-09-30T02:17:52;4.60;;;4.03;;
10114;SDS011;5097;43.260;27.812;2023-09-30T02:20:36;5.13;;;4.63;;
10114;SDS011;5097;43.260;27.812;2023-09-30T02:23:21;4.90;;;4.45;;
10114;SDS011;5097;43.260;27.812;2023-09-30T02:26:06;8.55;;;4.78;;
10114;SDS011;5097;43.260;27.812;2023-09-30T02:28:51;4.72;;;4.30;;
10114;SDS011;5097;43.260;27.812;2023-09-30T02:31:36;5.07;;;4.53;;
10114;SDS011;5097;43.260;27.812;2023-09-30T02:34:21;5.85;;;4.03;;
10114;SDS011;5097;43.260;27.812;2023-09-30T02:37:06;8.20;;;4.13;;
10114;SDS011;5097;43.260;27.812;2023-09-30T02:39:50;4.53;;;4.13;;
10114;SDS011;5097;43.260;27.812;2023-09-30T02:42:34;5.87;;;4.03;;
10114;SDS011;5097;43.260;27.812;2023-09-30T02:45:20;5.20;;;4.33;;
10114;SDS011;5097;43.260;27.812;2023-09-30T02:48:04;4.37;;;3.80;;
10114;SDS011;5097;43.260;27.812;2023-09-30T02:50:49;5.83;;;4.00;;
10114;SDS011;5097;43.260;27.812;2023-09-30T02:53:32;4.10;;;3.70;;
10114;SDS011;5097;43.260;27.812;2023-09-30T02:56:16;5.55;;;4.05;;
10114;SDS011;5097;43.260;27.812;2023-09-30T02:59:01;5.60;;;3.70;;
10114;SDS011;5097;43.260;27.812;2023-09-30T03:01:48;6.05;;;3.33;;
10114;SDS011;5097;43.260;27.812;2023-09-30T03:04:32;4.15;;;3.30;;
10114;SDS011;5097;43.260;27.812;2023-09-30T03:07:17;3.83;;;3.38;;
10114;SDS011;5097;43.260;27.812;2023-09-30T03:10:01;6.88;;;3.17;;
10114;SDS011;5097;43.260;27.812;2023-09-30T03:12:47;4.28;;;3.35;;
10114;SDS011;5097;43.260;27.812;2023-09-30T03:15:31;3.95;;;3.55;;
10114;SDS011;5097;43.260;27.812;2023-09-30T03:18:16;7.80;;;3.73;;
10114;SDS011;5097;43.260;27.812;2023-09-30T03:21:12;4.88;;;4.13;;
10114;SDS011;5097;43.260;27.812;2023-09-30T03:23:58;4.50;;;3.58;;
10114;SDS011;5097;43.260;27.812;2023-09-30T03:26:42;3.35;;;3.05;;
10114;SDS011;5097;43.260;27.812;2023-09-30T03:29:26;5.43;;;3.47;;
10114;SDS011;5097;43.260;27.812;2023-09-30T03:32:10;3.97;;;3.63;;
10114;SDS011;5097;43.260;27.812;2023-09-30T03:34:55;4.03;;;3.23;;
10114;SDS011;5097;43.260;27.812;2023-09-30T03:37:42;4.10;;;3.30;;
10114;SDS011;5097;43.260;27.812;2023-09-30T03:40:27;4.47;;;2.97;;
10114;SDS011;5097;43.260;27.812;2023-09-30T03:43:15;5.85;;;3.10;;
10114;SDS011;5097;43.260;27.812;2023-09-30T03:45:59;3.87;;;3.47;;
10114;SDS011;5097;43.260;27.812;2023-09-30T03:48:43;5.27;;;3.33;;
10114;SDS011;5097;43.260;27.812;2023-09-30T03:51:28;4.27;;;3.50;;
10114;SDS011;5097;43.260;27.812;2023-09-30T03:54:13;4.23;;;3.30;;
10114;SDS011;5097;43.260;27.812;2023-09-30T03:56:57;3.65;;;2.70;;
10114;SDS011;5097;43.260;27.812;2023-09-30T03:59:42;2.97;;;2.58;;
10114;SDS011;5097;43.260;27.812;2023-09-30T04:02:28;4.17;;;2.80;;
10114;SDS011;5097;43.260;27.812;2023-09-30T04:05:13;7.00;;;3.13;;
10114;SDS011;5097;43.260;27.812;2023-09-30T04:07:59;4.78;;;2.90;;
10114;SDS011;5097;43.260;27.812;2023-09-30T04:10:43;5.30;;;3.30;;
10114;SDS011;5097;43.260;27.812;2023-09-30T04:13:27;3.10;;;2.80;;
10114;SDS011;5097;43.260;27.812;2023-09-30T04:16:11;2.70;;;2.50;;
10114;SDS011;5097;43.260;27.812;2023-09-30T04:18:56;4.28;;;3.15;;
10114;SDS011;5097;43.260;27.812;2023-09-30T04:21:40;3.85;;;2.75;;
10114;SDS011;5097;43.260;27.812;2023-09-30T04:24:25;5.00;;;2.80;;
10114;SDS011;5097;43.260;27.812;2023-09-30T04:27:11;4.57;;;2.90;;
10114;SDS011;5097;43.260;27.812;2023-09-30T04:29:55;3.10;;;2.72;;
10114;SDS011;5097;43.260;27.812;2023-09-30T04:32:38;3.63;;;2.83;;
10114;SDS011;5097;43.260;27.812;2023-09-30T04:35:23;2.90;;;2.70;;
10114;SDS011;5097;43.260;27.812;2023-09-30T04:38:08;4.95;;;3.03;;
10114;SDS011;5097;43.260;27.812;2023-09-30T04:40:54;3.40;;;3.10;;
10114;SDS011;5097;43.260;27.812;2023-09-30T04:43:38;4.93;;;3.60;;
10114;SDS011;5097;43.260;27.812;2023-09-30T04:46:22;4.82;;;2.72;;
10114;SDS011;5097;43.260;27.812;2023-09-30T04:49:06;4.45;;;2.90;;
10114;SDS011;5097;43.260;27.812;2023-09-30T04:51:51;3.67;;;3.22;;
10114;SDS011;5097;43.260;27.812;2023-09-30T04:54:35;3.30;;;3.00;;
10114;SDS011;5097;43.260;27.812;2023-09-30T04:57:20;4.15;;;2.95;;
10114;SDS011;5097;43.260;27.812;2023-09-30T05:00:05;3.75;;;2.97;;
10114;SDS011;5097;43.260;27.812;2023-09-30T05:02:54;3.22;;;2.92;;
10114;SDS011;5097;43.260;27.812;2023-09-30T05:05:39;4.78;;;3.25;;
10114;SDS011;5097;43.260;27.812;2023-09-30T05:08:24;4.38;;;2.90;;
10114;SDS011;5097;43.260;27.812;2023-09-30T05:11:08;4.03;;;3.08;;
10114;SDS011;5097;43.260;27.812;2023-09-30T05:13:54;4.45;;;3.08;;
10114;SDS011;5097;43.260;27.812;2023-09-30T05:16:38;6.20;;;3.40;;
10114;SDS011;5097;43.260;27.812;2023-09-30T05:19:22;4.60;;;3.00;;
10114;SDS011;5097;43.260;27.812;2023-09-30T05:22:06;4.70;;;3.10;;
10114;SDS011;5097;43.260;27.812;2023-09-30T05:24:50;5.28;;;3.50;;
10114;SDS011;5097;43.260;27.812;2023-09-30T05:27:34;6.10;;;3.30;;
10114;SDS011;5097;43.260;27.812;2023-09-30T05:30:20;4.10;;;3.30;;
10114;SDS011;5097;43.260;27.812;2023-09-30T05:33:04;5.30;;;3.50;;
10114;SDS011;5097;43.260;27.812;2023-09-30T05:35:48;3.47;;;3.17;;
10114;SDS011;5097;43.260;27.812;2023-09-30T05:38:32;5.57;;;3.22;;
10114;SDS011;5097;43.260;27.812;2023-09-30T05:41:16;3.47;;;2.97;;
10114;SDS011;5097;43.260;27.812;2023-09-30T05:44:03;3.53;;;3.22;;
10114;SDS011;5097;43.260;27.812;2023-09-30T05:46:49;4.00;;;3.13;;
10114;SDS011;5097;43.260;27.812;2023-09-30T05:49:33;5.88;;;3.53;;
10114;SDS011;5097;43.260;27.812;2023-09-30T05:52:18;4.15;;;3.42;;
10114;SDS011;5097;43.260;27.812;2023-09-30T05:55:02;3.72;;;3.25;;
10114;SDS011;5097;43.260;27.812;2023-09-30T05:57:47;4.88;;;3.67;;
10114;SDS011;5097;43.260;27.812;2023-09-30T06:00:32;3.22;;;2.90;;
10114;SDS011;5097;43.260;27.812;2023-09-30T06:03:19;4.75;;;3.72;;
10114;SDS011;5097;43.260;27.812;2023-09-30T06:06:05;4.03;;;3.47;;
10114;SDS011;5097;43.260;27.812;2023-09-30T06:08:55;4.68;;;3.80;;
10114;SDS011;5097;43.260;27.812;2023-09-30T06:11:40;5.10;;;3.60;;
10114;SDS011;5097;43.260;27.812;2023-09-30T06:14:24;4.30;;;3.90;;
10114;SDS011;5097;43.260;27.812;2023-09-30T06:17:10;4.75;;;3.50;;
10114;SDS011;5097;43.260;27.812;2023-09-30T06:19:55;4.10;;;3.42;;
10114;SDS011;5097;43.260;27.812;2023-09-30T06:22:49;3.22;;;3.00;;
10114;SDS011;5097;43.260;27.812;2023-09-30T06:25:33;4.47;;;3.75;;
10114;SDS011;5097;43.260;27.812;2023-09-30T06:28:17;4.88;;;3.80;;
10114;SDS011;5097;43.260;27.812;2023-09-30T06:31:08;5.20;;;3.88;;
10114;SDS011;5097;43.260;27.812;2023-09-30T06:33:52;4.18;;;3.75;;
10114;SDS011;5097;43.260;27.812;2023-09-30T06:36:42;4.30;;;3.88;;
10114;SDS011;5097;43.260;27.812;2023-09-30T06:39:25;6.10;;;4.00;;
10114;SDS011;5097;43.260;27.812;2023-09-30T06:42:11;7.13;;;4.25;;
10114;SDS011;5097;43.260;27.812;2023-09-30T06:44:55;6.30;;;4.18;;
10114;SDS011;5097;43.260;27.812;2023-09-30T06:47:40;4.18;;;3.78;;
10114;SDS011;5097;43.260;27.812;2023-09-30T06:50:24;9.00;;;4.35;;
10114;SDS011;5097;43.260;27.812;2023-09-30T06:53:10;7.90;;;3.65;;
10114;SDS011;5097;43.260;27.812;2023-09-30T06:55:54;5.72;;;4.32;;
10114;SDS011;5097;43.260;27.812;2023-09-30T06:58:39;3.78;;;3.35;;
10114;SDS011;5097;43.260;27.812;2023-09-30T07:01:23;3.63;;;3.33;;
10114;SDS011;5097;43.260;27.812;2023-09-30T07:04:07;4.50;;;3.60;;
10114;SDS011;5097;43.260;27.812;2023-09-30T07:06:53;6.43;;;3.88;;
10114;SDS011;5097;43.260;27.812;2023-09-30T07:09:38;3.80;;;3.47;;
10114;SDS011;5097;43.260;27.812;2023-09-30T07:12:22;13.18;;;4.38;;
10114;SDS011;5097;43.260;27.812;2023-09-30T07:15:06;4.80;;;4.05;;
10114;SDS011;5097;43.260;27.812;2023-09-30T07:17:51;8.68;;;4.60;;
10114;SDS011;5097;43.260;27.812;2023-09-30T07:20:35;4.63;;;3.63;;
10114;SDS011;5097;43.260;27.812;2023-09-30T07:23:19;4.00;;;3.63;;
10114;SDS011;5097;43.260;27.812;2023-09-30T07:26:05;5.13;;;3.95;;
10114;SDS011;5097;43.260;27.812;2023-09-30T07:28:49;4.22;;;3.80;;
10114;SDS011;5097;43.260;27.812;2023-09-30T07:31:34;4.88;;;3.80;;
10114;SDS011;5097;43.260;27.812;2023-09-30T07:34:19;6.30;;;3.80;;
10114;SDS011;5097;43.260;27.812;2023-09-30T07:37:03;4.20;;;3.70;;
10114;SDS011;5097;43.260;27.812;2023-09-30T07:39:47;6.07;;;3.78;;
10114;SDS011;5097;43.260;27.812;2023-09-30T07:42:33;4.40;;;4.00;;
10114;SDS011;5097;43.260;27.812;2023-09-30T07:45:17;4.07;;;3.67;;
10114;SDS011;5097;43.260;27.812;2023-09-30T07:48:02;6.85;;;4.22;;
10114;SDS011;5097;43.260;27.812;2023-09-30T07:50:47;3.78;;;3.47;;
10114;SDS011;5097;43.260;27.812;2023-09-30T07:53:31;3.75;;;3.45;;
10114;SDS011;5097;43.260;27.812;2023-09-30T07:56:15;3.78;;;3.47;;
10114;SDS011;5097;43.260;27.812;2023-09-30T07:59:00;4.47;;;3.55;;
10114;SDS011;5097;43.260;27.812;2023-09-30T08:01:47;4.22;;;3.92;;
10114;SDS011;5097;43.260;27.812;2023-09-30T08:04:32;6.40;;;3.92;;
10114;SDS011;5097;43.260;27.812;2023-09-30T08:07:16;5.13;;;4.38;;
10114;SDS011;5097;43.260;27.812;2023-09-30T08:10:00;4.15;;;3.42;;
10114;SDS011;5097;43.260;27.812;2023-09-30T08:12:46;4.97;;;3.75;;
10114;SDS011;5097;43.260;27.812;2023-09-30T08:15:34;5.57;;;3.78;;
10114;SDS011;5097;43.260;27.812;2023-09-30T08:18:18;5.45;;;3.63;;
10114;SDS011;5097;43.260;27.812;2023-09-30T08:21:02;4.20;;;3.60;;
10114;SDS011;5097;43.260;27.812;2023-09-30T08:23:47;4.72;;;4.05;;
10114;SDS011;5097;43.260;27.812;2023-09-30T08:26:31;5.10;;;3.53;;
10114;SDS011;5097;43.260;27.812;2023-09-30T08:29:15;6.07;;;3.97;;
10114;SDS011;5097;43.260;27.812;2023-09-30T08:32:00;3.63;;;3.33;;
10114;SDS011;5097;43.260;27.812;2023-09-30T08:34:45;4.43;;;4.03;;
10114;SDS011;5097;43.260;27.812;2023-09-30T08:37:29;8.07;;;3.38;;
10114;SDS011;5097;43.260;27.812;2023-09-30T08:40:14;3.90;;;3.60;;
10114;SDS011;5097;43.260;27.812;2023-09-30T08:43:03;5.00;;;3.35;;
10114;SDS011;5097;43.260;27.812;2023-09-30T08:45:49;5.18;;;3.72;;
10114;SDS011;5097;43.260;27.812;2023-09-30T08:48:39;3.20;;;2.90;;
10114;SDS011;5097;43.260;27.812;2023-09-30T08:51:23;3.92;;;3.63;;
10114;SDS011;5097;43.260;27.812;2023-09-30T08:54:07;4.95;;;3.42;;
10114;SDS011;5097;43.260;27.812;2023-09-30T08:56:52;4.95;;;3.03;;
10114;SDS011;5097;43.260;27.812;2023-09-30T08:59:36;4.07;;;3.67;;
10114;SDS011;5097;43.260;27.812;2023-09-30T09:02:21;3.47;;;2.95;;
10114;SDS011;5097;43.260;27.812;2023-09-30T09:05:07;6.68;;;3.58;;
10114;SDS011;5097;43.260;27.812;2023-09-30T09:07:55;3.95;;;3.55;;
10114;SDS011;5097;43.260;27.812;2023-09-30T09:10:45;3.80;;;3.40;;
10114;SDS011;5097;43.260;27.812;2023-09-30T09:13:45;9.60;;;6.95;;
10114;SDS011;5097;43.260;27.812;2023-09-30T09:16:32;5.68;;;3.95;;
10114;SDS011;5097;43.260;27.812;2023-09-30T09:19:16;4.40;;;3.38;;
10114;SDS011;5097;43.260;27.812;2023-09-30T09:22:02;6.13;;;4.90;;
10114;SDS011;5097;43.260;27.812;2023-09-30T09:24:49;3.78;;;3.42;;
10114;SDS011;5097;43.260;27.812;2023-09-30T09:27:37;3.25;;;2.95;;
10114;SDS011;5097;43.260;27.812;2023-09-30T09:30:22;3.25;;;2.85;;
10114;SDS011;5097;43.260;27.812;2023-09-30T09:33:07;3.10;;;2.80;;
10114;SDS011;5097;43.260;27.812;2023-09-30T09:35:51;6.05;;;3.20;;
10114;SDS011;5097;43.260;27.812;2023-09-30T09:38:44;3.55;;;3.22;;
10114;SDS011;5097;43.260;27.812;2023-09-30T09:41:30;4.60;;;3.25;;
10114;SDS011;5097;43.260;27.812;2023-09-30T09:44:14;3.83;;;3.42;;
10114;SDS011;5097;43.260;27.812;2023-09-30T09:46:59;2.97;;;2.78;;
10114;SDS011;5097;43.260;27.812;2023-09-30T09:49:49;5.20;;;3.88;;
10114;SDS011;5097;43.260;27.812;2023-09-30T09:52:34;4.15;;;3.75;;
10114;SDS011;5097;43.260;27.812;2023-09-30T09:55:20;7.47;;;3.72;;
10114;SDS011;5097;43.260;27.812;2023-09-30T09:58:05;4.68;;;3.25;;
10114;SDS011;5097;43.260;27.812;2023-09-30T10:00:53;3.20;;;2.53;;
10114;SDS011;5097;43.260;27.812;2023-09-30T10:03:39;3.00;;;2.70;;
10114;SDS011;5097;43.260;27.812;2023-09-30T10:06:23;4.32;;;3.00;;
10114;SDS011;5097;43.260;27.812;2023-09-30T10:09:09;3.75;;;3.22;;
10114;SDS011;5097;43.260;27.812;2023-09-30T10:11:58;4.22;;;3.67;;
10114;SDS011;5097;43.260;27.812;2023-09-30T10:14:44;4.70;;;3.13;;
10114;SDS011;5097;43.260;27.812;2023-09-30T10:20:41;3.60;;;3.30;;
10114;SDS011;5097;43.260;27.812;2023-09-30T10:23:28;2.80;;;2.60;;
10114;SDS011;5097;43.260;27.812;2023-09-30T10:26:16;6.47;;;3.28;;
10114;SDS011;5097;43.260;27.812;2023-09-30T10:29:10;3.20;;;2.90;;
10114;SDS011;5097;43.260;27.812;2023-09-30T10:31:54;4.65;;;3.58;;
10114;SDS011;5097;43.260;27.812;2023-09-30T10:34:38;4.72;;;3.20;;
10114;SDS011;5097;43.260;27.812;2023-09-30T10:37:23;3.63;;;3.25;;
10114;SDS011;5097;43.260;27.812;2023-09-30T10:40:07;5.53;;;3.17;;
10114;SDS011;5097;43.260;27.812;2023-09-30T10:42:51;4.32;;;3.70;;
10114;SDS011;5097;43.260;27.812;2023-09-30T10:45:45;3.60;;;2.97;;
10114;SDS011;5097;43.260;27.812;2023-09-30T10:48:37;4.18;;;3.00;;
10114;SDS011;5097;43.260;27.812;2023-09-30T10:51:24;2.92;;;2.67;;
10114;SDS011;5097;43.260;27.812;2023-09-30T10:54:08;3.97;;;2.97;;
10114;SDS011;5097;43.260;27.812;2023-09-30T10:56:53;3.50;;;3.05;;
10114;SDS011;5097;43.260;27.812;2023-09-30T10:59:37;3.90;;;2.92;;
10114;SDS011;5097;43.260;27.812;2023-09-30T11:02:22;3.20;;;2.53;;
10114;SDS011;5097;43.260;27.812;2023-09-30T11:05:08;5.88;;;3.70;;
10114;SDS011;5097;43.260;27.812;2023-09-30T11:07:53;4.03;;;3.30;;
10114;SDS011;5097;43.260;27.812;2023-09-30T11:10:46;3.50;;;3.10;;
10114;SDS011;5097;43.260;27.812;2023-09-30T11:13:33;3.55;;;3.25;;
10114;SDS011;5097;43.260;27.812;2023-09-30T11:16:18;3.47;;;3.08;;
10114;SDS011;5097;43.260;27.812;2023-09-30T11:19:03;5.55;;;3.17;;
10114;SDS011;5097;43.260;27.812;2023-09-30T11:21:50;3.10;;;2.67;;
10114;SDS011;5097;43.260;27.812;2023-09-30T11:24:37;3.00;;;2.75;;
10114;SDS011;5097;43.260;27.812;2023-09-30T11:27:22;4.85;;;2.75;;
10114;SDS011;5097;43.260;27.812;2023-09-30T11:30:10;4.13;;;3.33;;
10114;SDS011;5097;43.260;27.812;2023-09-30T11:32:58;3.30;;;3.00;;
10114;SDS011;5097;43.260;27.812;2023-09-30T11:35:56;3.90;;;3.50;;
10114;SDS011;5097;43.260;27.812;2023-09-30T11:38:44;3.90;;;3.20;;
10114;SDS011;5097;43.260;27.812;2023-09-30T11:41:32;5.03;;;3.42;;
10114;SDS011;5097;43.260;27.812;2023-09-30T11:44:17;2.90;;;2.70;;
10114;SDS011;5097;43.260;27.812;2023-09-30T11:47:02;3.92;;;3.25;;
10114;SDS011;5097;43.260;27.812;2023-09-30T11:49:52;2.95;;;2.75;;
10114;SDS011;5097;43.260;27.812;2023-09-30T11:52:38;3.90;;;3.33;;
10114;SDS011;5097;43.260;27.812;2023-09-30T11:55:28;5.38;;;3.15;;
10114;SDS011;5097;43.260;27.812;2023-09-30T11:58:13;3.92;;;3.25;;
10114;SDS011;5097;43.260;27.812;2023-09-30T12:01:00;3.80;;;3.30;;
10114;SDS011;5097;43.260;27.812;2023-09-30T12:03:44;5.82;;;3.38;;
10114;SDS011;5097;43.260;27.812;2023-09-30T12:06:30;6.15;;;3.83;;
10114;SDS011;5097;43.260;27.812;2023-09-30T12:09:15;3.75;;;3.33;;
10114;SDS011;5097;43.260;27.812;2023-09-30T12:12:04;3.55;;;3.25;;
10114;SDS011;5097;43.260;27.812;2023-09-30T12:14:52;5.40;;;3.15;;
10114;SDS011;5097;43.260;27.812;2023-09-30T12:17:37;3.10;;;2.80;;
10114;SDS011;5097;43.260;27.812;2023-09-30T12:20:21;5.90;;;3.70;;
10114;SDS011;5097;43.260;27.812;2023-09-30T12:23:07;6.53;;;4.35;;
10114;SDS011;5097;43.260;27.812;2023-09-30T12:25:53;3.45;;;3.15;;
10114;SDS011;5097;43.260;27.812;2023-09-30T12:28:52;6.28;;;2.60;;
10114;SDS011;5097;43.260;27.812;2023-09-30T12:31:36;4.10;;;3.60;;
10114;SDS011;5097;43.260;27.812;2023-09-30T12:34:33;3.40;;;3.10;;
10114;SDS011;5097;43.260;27.812;2023-09-30T12:37:19;5.47;;;3.40;;
10114;SDS011;5097;43.260;27.812;2023-09-30T12:40:03;4.00;;;3.60;;
10114;SDS011;5097;43.260;27.812;2023-09-30T12:42:50;4.97;;;2.97;;
10114;SDS011;5097;43.260;27.812;2023-09-30T12:45:34;4.10;;;3.70;;
10114;SDS011;5097;43.260;27.812;2023-09-30T12:48:20;3.90;;;3.00;;
10114;SDS011;5097;43.260;27.812;2023-09-30T12:51:04;3.72;;;2.72;;
10114;SDS011;5097;43.260;27.812;2023-09-30T12:53:49;4.97;;;3.40;;
10114;SDS011;5097;43.260;27.812;2023-09-30T12:56:33;3.63;;;3.05;;
10114;SDS011;5097;43.260;27.812;2023-09-30T12:59:18;3.10;;;2.83;;
10114;SDS011;5097;43.260;27.812;2023-09-30T13:02:06;3.05;;;2.75;;
10114;SDS011;5097;43.260;27.812;2023-09-30T13:04:52;3.65;;;2.75;;
10114;SDS011;5097;43.260;27.812;2023-09-30T13:07:36;5.15;;;2.92;;
10114;SDS011;5097;43.260;27.812;2023-09-30T13:10:20;3.35;;;2.80;;
10114;SDS011;5097;43.260;27.812;2023-09-30T13:13:05;3.20;;;2.90;;
10114;SDS011;5097;43.260;27.812;2023-09-30T13:15:51;3.35;;;3.05;;
10114;SDS011;5097;43.260;27.812;2023-09-30T13:18:35;3.40;;;3.03;;
10114;SDS011;5097;43.260;27.812;2023-09-30T13:21:19;3.45;;;3.15;;
10114;SDS011;5097;43.260;27.812;2023-09-30T13:24:03;4.10;;;3.58;;
10114;SDS011;5097;43.260;27.812;2023-09-30T13:26:49;5.43;;;3.42;;
10114;SDS011;5097;43.260;27.812;2023-09-30T13:29:34;4.70;;;3.22;;
10114;SDS011;5097;43.260;27.812;2023-09-30T13:32:20;3.25;;;2.95;;
10114;SDS011;5097;43.260;27.812;2023-09-30T13:35:04;4.18;;;3.67;;
10114;SDS011;5097;43.260;27.812;2023-09-30T13:37:49;5.72;;;3.60;;
10114;SDS011;5097;43.260;27.812;2023-09-30T13:40:33;3.10;;;2.88;;
10114;SDS011;5097;43.260;27.812;2023-09-30T13:43:18;2.85;;;2.65;;
10114;SDS011;5097;43.260;27.812;2023-09-30T13:46:03;3.88;;;3.13;;
10114;SDS011;5097;43.260;27.812;2023-09-30T13:48:51;3.53;;;2.85;;
10114;SDS011;5097;43.260;27.812;2023-09-30T13:51:35;5.65;;;2.80;;
10114;SDS011;5097;43.260;27.812;2023-09-30T13:54:21;5.75;;;3.53;;
10114;SDS011;5097;43.260;27.812;2023-09-30T13:57:05;3.90;;;3.08;;
10114;SDS011;5097;43.260;27.812;2023-09-30T13:59:49;4.78;;;3.58;;
10114;SDS011;5097;43.260;27.812;2023-09-30T14:02:34;6.68;;;3.42;;
10114;SDS011;5097;43.260;27.812;2023-09-30T14:05:20;3.40;;;3.05;;
10114;SDS011;5097;43.260;27.812;2023-09-30T14:08:04;4.60;;;3.08;;
10114;SDS011;5097;43.260;27.812;2023-09-30T14:10:49;2.85;;;2.65;;
10114;SDS011;5097;43.260;27.812;2023-09-30T14:13:34;3.47;;;3.08;;
10114;SDS011;5097;43.260;27.812;2023-09-30T14:16:18;5.47;;;3.10;;
10114;SDS011;5097;43.260;27.812;2023-09-30T14:19:02;6.43;;;3.28;;
10114;SDS011;5097;43.260;27.812;2023-09-30T14:21:48;3.90;;;3.50;;
10114;SDS011;5097;43.260;27.812;2023-09-30T14:24:33;4.22;;;3.42;;
10114;SDS011;5097;43.260;27.812;2023-09-30T14:27:18;6.50;;;2.92;;
10114;SDS011;5097;43.260;27.812;2023-09-30T14:30:02;6.45;;;3.40;;
10114;SDS011;5097;43.260;27.812;2023-09-30T14:32:50;3.08;;;2.60;;
10114;SDS011;5097;43.260;27.812;2023-09-30T14:35:34;4.53;;;3.20;;
10114;SDS011;5097;43.260;27.812;2023-09-30T14:38:19;3.25;;;3.00;;
10114;SDS011;5097;43.260;27.812;2023-09-30T14:41:06;7.28;;;2.97;;
10114;SDS011;5097;43.260;27.812;2023-09-30T14:43:51;8.10;;;3.67;;
10114;SDS011;5097;43.260;27.812;2023-09-30T14:46:35;5.82;;;3.95;;
10114;SDS011;5097;43.260;27.812;2023-09-30T14:49:20;4.75;;;3.58;;
10114;SDS011;5097;43.260;27.812;2023-09-30T14:52:04;3.78;;;3.20;;
10114;SDS011;5097;43.260;27.812;2023-09-30T14:54:50;5.22;;;3.53;;
10114;SDS011;5097;43.260;27.812;2023-09-30T14:57:34;5.72;;;3.80;;
10114;SDS011;5097;43.260;27.812;2023-09-30T15:00:18;5.60;;;4.18;;
10114;SDS011;5097;43.260;27.812;2023-09-30T15:03:05;5.15;;;3.63;;
10114;SDS011;5097;43.260;27.812;2023-09-30T15:05:49;5.00;;;3.50;;
10114;SDS011;5097;43.260;27.812;2023-09-30T15:08:41;4.82;;;3.88;;
10114;SDS011;5097;43.260;27.812;2023-09-30T15:11:27;6.20;;;3.90;;
10114;SDS011;5097;43.260;27.812;2023-09-30T15:14:10;4.85;;;3.05;;
10114;SDS011;5097;43.260;27.812;2023-09-30T15:16:54;5.32;;;3.67;;
10114;SDS011;5097;43.260;27.812;2023-09-30T15:19:38;5.78;;;3.28;;
10114;SDS011;5097;43.260;27.812;2023-09-30T15:22:23;5.75;;;4.28;;
10114;SDS011;5097;43.260;27.812;2023-09-30T15:25:07;4.80;;;3.78;;
10114;SDS011;5097;43.260;27.812;2023-09-30T15:27:53;5.65;;;3.33;;
10114;SDS011;5097;43.260;27.812;2023-09-30T15:30:40;6.03;;;3.85;;
10114;SDS011;5097;43.260;27.812;2023-09-30T15:33:24;5.53;;;4.03;;
10114;SDS011;5097;43.260;27.812;2023-09-30T15:36:08;5.40;;;3.53;;
10114;SDS011;5097;43.260;27.812;2023-09-30T15:38:53;4.78;;;3.88;;
10114;SDS011;5097;43.260;27.812;2023-09-30T15:41:38;3.92;;;3.53;;
10114;SDS011;5097;43.260;27.812;2023-09-30T15:44:23;5.30;;;3.97;;
10114;SDS011;5097;43.260;27.812;2023-09-30T15:47:07;5.40;;;4.35;;
10114;SDS011;5097;43.260;27.812;2023-09-30T15:49:53;8.52;;;5.53;;
10114;SDS011;5097;43.260;27.812;2023-09-30T15:52:37;5.57;;;4.10;;
10114;SDS011;5097;43.260;27.812;2023-09-30T15:55:22;5.32;;;4.07;;
10114;SDS011;5097;43.260;27.812;2023-09-30T15:58:06;6.68;;;4.93;;
10114;SDS011;5097;43.260;27.812;2023-09-30T16:00:52;5.35;;;4.57;;
10114;SDS011;5097;43.260;27.812;2023-09-30T16:03:36;6.32;;;4.65;;
10114;SDS011;5097;43.260;27.812;2023-09-30T16:06:21;6.20;;;4.57;;
10114;SDS011;5097;43.260;27.812;2023-09-30T16:09:05;5.40;;;4.63;;
10114;SDS011;5097;43.260;27.812;2023-09-30T16:11:49;8.57;;;5.25;;
10114;SDS011;5097;43.260;27.812;2023-09-30T16:14:33;5.85;;;4.93;;
10114;SDS011;5097;43.260;27.812;2023-09-30T16:17:18;7.05;;;4.18;;
10114;SDS011;5097;43.260;27.812;2023-09-30T16:20:03;5.05;;;3.72;;
10114;SDS011;5097;43.260;27.812;2023-09-30T16:22:48;4.63;;;3.45;;
10114;SDS011;5097;43.260;27.812;2023-09-30T16:25:33;5.30;;;3.80;;
10114;SDS011;5097;43.260;27.812;2023-09-30T16:28:17;3.63;;;3.30;;
10114;SDS011;5097;43.260;27.812;2023-09-30T16:31:02;4.68;;;4.15;;
10114;SDS011;5097;43.260;27.812;2023-09-30T16:33:48;4.88;;;3.75;;
10114;SDS011;5097;43.260;27.812;2023-09-30T16:36:32;7.40;;;4.45;;
10114;SDS011;5097;43.260;27.812;2023-09-30T16:39:19;5.68;;;4.30;;